CW2516 Weather Reports


Display with metric or nautical units.
time (UTC)temp
F
wind
direction
speed
MPH
gust
MPH
rain 1hr
in
rain 24hr
in
rain mn
in
humidity
%
barometer
mb
20210928011508 84 150 0.0 0.0 0.00 0.00 0.00 54 1003.5
20210928010009 85 150 0.0 0.0 0.00 0.00 0.00 53 1003.4
20210928004510 86 150 0.0 0.0 0.00 0.00 0.00 51 1003.4
20210928003004 87 150 0.0 0.0 0.00 0.00 0.00 51 1003.4
20210928001505 88 150 0.0 0.0 0.00 0.00 0.00 49 1003.3
20210928000008 89 150 0.0 0.0 0.00 0.00 0.00 47 1003.3
20210927234521 90 150 0.0 0.0 0.00 0.00 0.00 45 1003.2
20210927233002 91 150 0.0 0.0 0.00 0.00 0.00 44 1003.3
20210927231705 92 150 0.0 0.0 0.00 0.00 0.00 44 1003.4
20210927230145 92 150 0.0 0.0 0.00 0.00 0.00 43 1003.5
20210927224703 92 150 0.0 0.0 0.00 0.00 0.00 44 1003.4
20210927223211 93 157 0.0 0.0 0.00 0.00 0.00 44 1003.5
20210927221701 93 156 0.0 0.0 0.00 0.00 0.00 43 1003.6
20210927220124 92 169 0.0 0.0 0.00 0.00 0.00 45 1003.8
20210927214633 92 169 0.0 0.0 0.00 0.00 0.00 46 1003.9
20210927213141 93 169 0.0 0.0 0.00 0.00 0.00 45 1004.0
20210927211905 92 169 0.0 0.0 0.00 0.00 0.00 47 1004.1
20210927210211 92 169 0.0 0.0 0.00 0.00 0.00 46 1004.2
20210927204645 91 129 0.0 0.0 0.00 0.00 0.00 46 1004.3
20210927203107 93 129 0.0 1.0 0.00 0.00 0.00 41 1004.5
20210927201545 92 93 0.0 0.0 0.00 0.00 0.00 48 1004.6
20210927200127 91 39 0.0 0.0 0.00 0.00 0.00 48 1004.8
20210927194617 90 39 0.0 1.0 0.00 0.00 0.00 51 1005.0
20210927193135 88 65 0.0 1.0 0.00 0.00 0.00 51 1005.2
20210927191537 87 68 0.0 1.0 0.00 0.00 0.00 53 1005.5
20210927190039 87 129 0.0 0.0 0.00 0.00 0.00 54 1005.6
20210927184603 87 13 0.0 1.0 0.00 0.00 0.00 55 1005.8
20210927183035 84 39 0.0 1.0 0.00 0.00 0.00 60 1006.1
20210927181541 83 161 0.0 0.0 0.00 0.00 0.00 61 1006.4
20210927180017 82 161 0.0 1.0 0.00 0.00 0.00 62 1006.7
20210927174541 81 64 0.0 1.0 0.00 0.00 0.00 66 1006.9
20210927173012 81 44 0.0 2.0 0.00 0.00 0.00 67 1007.2
20210927171507 79 80 0.0 0.0 0.00 0.00 0.00 70 1007.4
20210927170300 78 101 0.0 2.0 0.00 0.00 0.00 73 1007.6
20210927164622 77 25 0.0 1.0 0.00 0.00 0.00 76 1007.9
20210927163216 76 49 0.0 2.0 0.00 0.00 0.00 77 1008.0
20210927161717 76 200 0.0 4.0 0.00 0.00 0.00 80 1008.1
20210927160123 75 74 0.0 1.0 0.00 0.00 0.00 82 1008.2
20210927154710 75 143 0.0 1.0 0.00 0.00 0.00 83 1008.3
20210927153300 74 154 0.0 0.0 0.00 0.00 0.00 83 1008.3
20210927151613 73 162 0.0 0.0 0.00 0.00 0.00 84 1008.3
20210927150115 73 134 0.0 0.0 0.00 0.00 0.00 84 1008.2
20210927144609 72 133 0.0 0.0 0.00 0.00 0.00 85 1008.1
20210927143143 72 134 0.0 0.0 0.00 0.00 0.00 85 1007.9
20210927141626 72 134 0.0 0.0 0.00 0.00 0.00 86 1007.8
20210927140110 71 134 0.0 0.0 0.00 0.00 0.00 88 1007.6
20210927134559 70 134 0.0 0.0 0.00 0.00 0.00 89 1007.4
20210927133109 69 134 0.0 0.0 0.00 0.00 0.00 90 1007.2
20210927131549 69 134 0.0 0.0 0.00 0.00 0.00 90 1007.1
20210927130138 68 134 0.0 0.0 0.00 0.00 0.00 89 1006.9
20210927124549 68 134 0.0 0.0 0.00 0.00 0.00 89 1006.9
20210927123138 68 134 0.0 0.0 0.00 0.00 0.00 87 1006.9
20210927121541 68 134 0.0 0.0 0.00 0.00 0.00 87 1006.8
20210927120107 68 134 0.0 0.0 0.00 0.00 0.00 87 1006.9
20210927114530 68 134 0.0 0.0 0.00 0.00 0.00 87 1006.8
20210927113056 69 134 0.0 0.0 0.00 0.00 0.00 86 1006.8
20210927111534 69 134 0.0 0.0 0.00 0.00 0.00 86 1006.6
20210927110035 69 134 0.0 0.0 0.00 0.00 0.00 86 1006.6
20210927104544 69 134 0.0 0.0 0.00 0.00 0.00 86 1006.6
20210927103030 70 134 0.0 0.0 0.00 0.00 0.00 86 1006.7
20210927100038 70 134 0.0 0.0 0.00 0.00 0.00 85 1006.6
20210927094557 70 134 0.0 0.0 0.00 0.00 0.00 84 1006.6
20210927093021 70 134 0.0 0.0 0.00 0.00 0.00 84 1006.6
20210927091605 71 134 0.0 0.0 0.00 0.00 0.00 84 1006.7
20210927090016 71 134 0.0 0.0 0.00 0.00 0.00 84 1007.0
20210927084512 71 134 0.0 0.0 0.00 0.00 0.00 83 1007.1
20210927083012 71 134 0.0 0.0 0.00 0.00 0.00 83 1007.3
20210927081610 71 134 0.0 0.0 0.00 0.00 0.00 82 1007.3
20210927080006 71 134 0.0 0.0 0.00 0.00 0.00 81 1007.5
20210927074505 72 134 0.0 0.0 0.00 0.00 0.00 80 1007.6
20210927073027 72 134 0.0 0.0 0.00 0.00 0.00 80 1007.6
20210927071502 72 134 0.0 0.0 0.00 0.00 0.00 79 1007.6
20210927070303 72 155 0.0 0.0 0.00 0.00 0.00 79 1007.5
20210927064726 72 155 0.0 0.0 0.00 0.00 0.00 78 1007.5
20210927063140 72 155 0.0 0.0 0.00 0.00 0.00 78 1007.6
20210927061832 73 155 0.0 0.0 0.00 0.00 0.00 77 1007.5
20210927060158 73 155 0.0 0.0 0.00 0.00 0.00 75 1007.6
20210927054624 74 155 0.0 0.0 0.00 0.00 0.00 74 1007.6
20210927053351 74 153 0.0 0.0 0.00 0.00 0.00 73 1007.5
20210927051744 74 153 0.0 0.0 0.00 0.00 0.00 72 1007.6
20210927050235 75 153 0.0 0.0 0.00 0.00 0.00 71 1007.5
20210927044623 75 153 0.0 0.0 0.00 0.00 0.00 70 1007.4
20210927043107 75 98 0.0 0.0 0.00 0.00 0.00 68 1007.4
20210927041549 76 137 0.0 0.0 0.00 0.00 0.00 67 1007.4
20210927040121 76 135 0.0 0.0 0.00 0.00 0.00 64 1007.3
20210927034611 76 135 0.0 0.0 0.00 0.00 0.00 63 1007.1
20210927033121 76 96 0.0 0.0 0.00 0.00 0.00 58 1007.1
20210927031617 75 74 0.0 0.0 0.00 0.00 0.00 52 1006.9
20210927030131 76 72 0.0 0.0 0.00 0.00 0.00 48 1006.7
20210927024613 77 72 0.0 0.0 0.00 0.00 0.00 47 1006.6
20210927023107 77 72 0.0 0.0 0.00 0.00 0.00 47 1006.6
20210927021608 77 72 0.0 0.0 0.00 0.00 0.00 46 1006.4
20210927020045 78 72 0.0 0.0 0.00 0.00 0.00 44 1006.3
20210927014724 78 71 0.0 0.0 0.00 0.00 0.00 44 1006.2
20210927013052 79 71 0.0 0.0 0.00 0.00 0.00 43 1006.2